sensor_id;sensor_type;location;lat;lon;timestamp;P1;durP1;ratioP1;P2;durP2;ratioP2
1837;SDS011;918;50.796;6.772;2023-02-28T00:00:27;3.93;;;3.53;;
1837;SDS011;918;50.796;6.772;2023-02-28T00:02:53;5.53;;;2.90;;
1837;SDS011;918;50.796;6.772;2023-02-28T00:05:19;5.40;;;3.90;;
1837;SDS011;918;50.796;6.772;2023-02-28T00:07:46;3.63;;;3.03;;
1837;SDS011;918;50.796;6.772;2023-02-28T00:10:12;4.57;;;4.13;;
1837;SDS011;918;50.796;6.772;2023-02-28T00:12:39;5.07;;;3.73;;
1837;SDS011;918;50.796;6.772;2023-02-28T00:15:05;3.77;;;3.47;;
1837;SDS011;918;50.796;6.772;2023-02-28T00:17:32;3.37;;;3.07;;
1837;SDS011;918;50.796;6.772;2023-02-28T00:19:57;5.03;;;3.40;;
1837;SDS011;918;50.796;6.772;2023-02-28T00:22:34;3.33;;;3.10;;
1837;SDS011;918;50.796;6.772;2023-02-28T00:25:00;4.20;;;3.40;;
1837;SDS011;918;50.796;6.772;2023-02-28T00:27:26;3.77;;;3.47;;
1837;SDS011;918;50.796;6.772;2023-02-28T00:29:51;4.33;;;3.70;;
1837;SDS011;918;50.796;6.772;2023-02-28T00:32:18;3.47;;;3.17;;
1837;SDS011;918;50.796;6.772;2023-02-28T00:34:44;4.40;;;3.40;;
1837;SDS011;918;50.796;6.772;2023-02-28T00:37:09;3.40;;;3.20;;
1837;SDS011;918;50.796;6.772;2023-02-28T00:39:37;4.20;;;3.63;;
1837;SDS011;918;50.796;6.772;2023-02-28T00:42:02;4.47;;;3.60;;
1837;SDS011;918;50.796;6.772;2023-02-28T00:44:28;4.20;;;3.47;;
1837;SDS011;918;50.796;6.772;2023-02-28T00:46:54;3.70;;;3.40;;
1837;SDS011;918;50.796;6.772;2023-02-28T00:49:20;3.30;;;3.10;;
1837;SDS011;918;50.796;6.772;2023-02-28T00:51:45;3.60;;;3.30;;
1837;SDS011;918;50.796;6.772;2023-02-28T00:54:11;3.87;;;3.50;;
1837;SDS011;918;50.796;6.772;2023-02-28T00:56:36;3.73;;;3.30;;
1837;SDS011;918;50.796;6.772;2023-02-28T00:59:01;5.63;;;3.57;;
1837;SDS011;918;50.796;6.772;2023-02-28T01:01:27;3.57;;;3.27;;
1837;SDS011;918;50.796;6.772;2023-02-28T01:03:52;3.33;;;3.10;;
1837;SDS011;918;50.796;6.772;2023-02-28T01:06:17;5.00;;;3.83;;
1837;SDS011;918;50.796;6.772;2023-02-28T01:08:42;3.83;;;3.53;;
1837;SDS011;918;50.796;6.772;2023-02-28T01:11:10;4.13;;;3.83;;
1837;SDS011;918;50.796;6.772;2023-02-28T01:13:36;3.20;;;3.00;;
1837;SDS011;918;50.796;6.772;2023-02-28T01:16:01;2.97;;;2.73;;
1837;SDS011;918;50.796;6.772;2023-02-28T01:18:26;5.53;;;3.33;;
1837;SDS011;918;50.796;6.772;2023-02-28T01:20:52;3.73;;;3.17;;
1837;SDS011;918;50.796;6.772;2023-02-28T01:23:18;3.13;;;2.67;;
1837;SDS011;918;50.796;6.772;2023-02-28T01:25:45;3.47;;;2.90;;
1837;SDS011;918;50.796;6.772;2023-02-28T01:28:10;2.73;;;2.53;;
1837;SDS011;918;50.796;6.772;2023-02-28T01:30:35;3.60;;;3.30;;
1837;SDS011;918;50.796;6.772;2023-02-28T01:33:00;3.53;;;3.23;;
1837;SDS011;918;50.796;6.772;2023-02-28T01:35:26;4.40;;;2.97;;
1837;SDS011;918;50.796;6.772;2023-02-28T01:37:51;3.40;;;3.10;;
1837;SDS011;918;50.796;6.772;2023-02-28T01:40:16;3.00;;;2.80;;
1837;SDS011;918;50.796;6.772;2023-02-28T01:42:42;3.53;;;3.23;;
1837;SDS011;918;50.796;6.772;2023-02-28T01:45:26;3.00;;;2.80;;
1837;SDS011;918;50.796;6.772;2023-02-28T01:47:55;3.00;;;2.70;;
1837;SDS011;918;50.796;6.772;2023-02-28T01:50:25;3.37;;;3.07;;
1837;SDS011;918;50.796;6.772;2023-02-28T01:52:52;3.47;;;3.13;;
1837;SDS011;918;50.796;6.772;2023-02-28T01:55:21;2.80;;;2.57;;
1837;SDS011;918;50.796;6.772;2023-02-28T01:57:51;3.43;;;3.13;;
1837;SDS011;918;50.796;6.772;2023-02-28T02:00:20;2.93;;;2.70;;
1837;SDS011;918;50.796;6.772;2023-02-28T02:02:48;3.37;;;3.10;;
1837;SDS011;918;50.796;6.772;2023-02-28T02:05:17;2.80;;;2.60;;
1837;SDS011;918;50.796;6.772;2023-02-28T02:07:44;3.27;;;3.00;;
1837;SDS011;918;50.796;6.772;2023-02-28T02:18:26;4.03;;;3.40;;
1837;SDS011;918;50.796;6.772;2023-02-28T02:26:27;5.70;;;3.37;;
1837;SDS011;918;50.796;6.772;2023-02-28T02:29:20;3.13;;;2.83;;
1837;SDS011;918;50.796;6.772;2023-02-28T02:35:00;2.90;;;2.60;;
1837;SDS011;918;50.796;6.772;2023-02-28T02:37:35;3.90;;;3.07;;
1837;SDS011;918;50.796;6.772;2023-02-28T02:40:22;3.27;;;2.70;;
1837;SDS011;918;50.796;6.772;2023-02-28T02:42:51;3.03;;;2.80;;
1837;SDS011;918;50.796;6.772;2023-02-28T02:45:32;3.17;;;2.97;;
1837;SDS011;918;50.796;6.772;2023-02-28T02:48:07;5.50;;;3.10;;
1837;SDS011;918;50.796;6.772;2023-02-28T02:50:42;4.83;;;3.10;;
1837;SDS011;918;50.796;6.772;2023-02-28T02:53:10;4.37;;;3.40;;
1837;SDS011;918;50.796;6.772;2023-02-28T02:55:38;4.53;;;3.50;;
1837;SDS011;918;50.796;6.772;2023-02-28T02:58:07;3.90;;;3.50;;
1837;SDS011;918;50.796;6.772;2023-02-28T03:00:35;2.57;;;2.37;;
1837;SDS011;918;50.796;6.772;2023-02-28T03:03:03;3.60;;;3.10;;
1837;SDS011;918;50.796;6.772;2023-02-28T03:05:34;5.50;;;2.90;;
1837;SDS011;918;50.796;6.772;2023-02-28T03:08:04;4.27;;;2.60;;
1837;SDS011;918;50.796;6.772;2023-02-28T03:10:42;3.27;;;3.07;;
1837;SDS011;918;50.796;6.772;2023-02-28T03:13:11;3.00;;;2.70;;
1837;SDS011;918;50.796;6.772;2023-02-28T03:15:55;3.70;;;2.83;;
1837;SDS011;918;50.796;6.772;2023-02-28T03:19:01;3.37;;;3.10;;
1837;SDS011;918;50.796;6.772;2023-02-28T03:21:23;3.67;;;3.27;;
1837;SDS011;918;50.796;6.772;2023-02-28T03:24:38;2.33;;;2.20;;
1837;SDS011;918;50.796;6.772;2023-02-28T03:26:58;3.23;;;3.03;;
1837;SDS011;918;50.796;6.772;2023-02-28T03:29:33;3.03;;;2.83;;
1837;SDS011;918;50.796;6.772;2023-02-28T03:32:03;3.33;;;3.03;;
1837;SDS011;918;50.796;6.772;2023-02-28T03:34:45;7.67;;;3.53;;
1837;SDS011;918;50.796;6.772;2023-02-28T03:37:16;3.00;;;2.80;;
1837;SDS011;918;50.796;6.772;2023-02-28T03:39:46;4.37;;;2.57;;
1837;SDS011;918;50.796;6.772;2023-02-28T03:42:18;4.30;;;2.97;;
1837;SDS011;918;50.796;6.772;2023-02-28T03:44:46;2.87;;;2.67;;
1837;SDS011;918;50.796;6.772;2023-02-28T03:47:16;3.70;;;3.17;;
1837;SDS011;918;50.796;6.772;2023-02-28T03:49:45;4.27;;;3.20;;
1837;SDS011;918;50.796;6.772;2023-02-28T03:52:14;3.20;;;3.00;;
1837;SDS011;918;50.796;6.772;2023-02-28T03:54:45;3.23;;;3.03;;
1837;SDS011;918;50.796;6.772;2023-02-28T03:59:59;2.80;;;2.60;;
1837;SDS011;918;50.796;6.772;2023-02-28T04:02:29;3.43;;;3.10;;
1837;SDS011;918;50.796;6.772;2023-02-28T04:04:54;3.10;;;2.83;;
1837;SDS011;918;50.796;6.772;2023-02-28T04:07:20;2.80;;;2.60;;
1837;SDS011;918;50.796;6.772;2023-02-28T04:09:45;3.43;;;3.13;;
1837;SDS011;918;50.796;6.772;2023-02-28T04:12:11;3.60;;;3.30;;
1837;SDS011;918;50.796;6.772;2023-02-28T04:14:36;4.47;;;4.07;;
1837;SDS011;918;50.796;6.772;2023-02-28T04:17:01;3.57;;;3.37;;
1837;SDS011;918;50.796;6.772;2023-02-28T04:19:27;3.27;;;3.07;;
1837;SDS011;918;50.796;6.772;2023-02-28T04:21:52;4.03;;;3.73;;
1837;SDS011;918;50.796;6.772;2023-02-28T04:24:20;4.00;;;3.60;;
1837;SDS011;918;50.796;6.772;2023-02-28T04:26:53;3.60;;;3.30;;
1837;SDS011;918;50.796;6.772;2023-02-28T04:29:22;3.50;;;3.20;;
1837;SDS011;918;50.796;6.772;2023-02-28T04:31:49;3.13;;;2.50;;
1837;SDS011;918;50.796;6.772;2023-02-28T04:34:14;3.57;;;3.27;;
1837;SDS011;918;50.796;6.772;2023-02-28T04:36:40;3.67;;;3.37;;
1837;SDS011;918;50.796;6.772;2023-02-28T04:39:05;3.43;;;3.23;;
1837;SDS011;918;50.796;6.772;2023-02-28T04:41:31;3.40;;;3.10;;
1837;SDS011;918;50.796;6.772;2023-02-28T04:43:56;3.90;;;3.03;;
1837;SDS011;918;50.796;6.772;2023-02-28T04:46:21;3.43;;;2.93;;
1837;SDS011;918;50.796;6.772;2023-02-28T04:48:47;3.63;;;3.33;;
1837;SDS011;918;50.796;6.772;2023-02-28T04:51:13;3.57;;;3.27;;
1837;SDS011;918;50.796;6.772;2023-02-28T04:53:40;3.40;;;3.10;;
1837;SDS011;918;50.796;6.772;2023-02-28T04:56:06;4.13;;;3.80;;
1837;SDS011;918;50.796;6.772;2023-02-28T04:58:32;3.23;;;2.93;;
1837;SDS011;918;50.796;6.772;2023-02-28T05:01:02;3.77;;;2.93;;
1837;SDS011;918;50.796;6.772;2023-02-28T05:03:28;3.30;;;3.00;;
1837;SDS011;918;50.796;6.772;2023-02-28T05:05:53;2.97;;;2.77;;
1837;SDS011;918;50.796;6.772;2023-02-28T05:08:19;4.30;;;3.33;;
1837;SDS011;918;50.796;6.772;2023-02-28T05:10:44;3.80;;;3.50;;
1837;SDS011;918;50.796;6.772;2023-02-28T05:13:11;3.00;;;2.80;;
1837;SDS011;918;50.796;6.772;2023-02-28T05:15:37;3.47;;;3.17;;
1837;SDS011;918;50.796;6.772;2023-02-28T05:18:02;4.10;;;3.13;;
1837;SDS011;918;50.796;6.772;2023-02-28T05:20:27;5.03;;;3.00;;
1837;SDS011;918;50.796;6.772;2023-02-28T05:22:53;3.00;;;2.80;;
1837;SDS011;918;50.796;6.772;2023-02-28T05:25:19;3.27;;;3.00;;
1837;SDS011;918;50.796;6.772;2023-02-28T05:27:46;2.73;;;2.60;;
1837;SDS011;918;50.796;6.772;2023-02-28T05:30:11;3.03;;;2.83;;
1837;SDS011;918;50.796;6.772;2023-02-28T05:32:37;3.00;;;2.80;;
1837;SDS011;918;50.796;6.772;2023-02-28T05:35:03;3.50;;;3.20;;
1837;SDS011;918;50.796;6.772;2023-02-28T05:37:29;3.30;;;3.00;;
1837;SDS011;918;50.796;6.772;2023-02-28T05:39:54;2.70;;;2.50;;
1837;SDS011;918;50.796;6.772;2023-02-28T05:42:19;4.90;;;3.50;;
1837;SDS011;918;50.796;6.772;2023-02-28T05:44:45;3.77;;;3.37;;
1837;SDS011;918;50.796;6.772;2023-02-28T05:47:10;3.80;;;3.50;;
1837;SDS011;918;50.796;6.772;2023-02-28T05:49:37;3.10;;;2.80;;
1837;SDS011;918;50.796;6.772;2023-02-28T05:52:02;3.97;;;3.43;;
1837;SDS011;918;50.796;6.772;2023-02-28T05:54:28;3.60;;;3.30;;
1837;SDS011;918;50.796;6.772;2023-02-28T05:56:53;4.17;;;3.60;;
1837;SDS011;918;50.796;6.772;2023-02-28T05:59:18;3.93;;;3.63;;
1837;SDS011;918;50.796;6.772;2023-02-28T06:01:44;4.00;;;3.60;;
1837;SDS011;918;50.796;6.772;2023-02-28T06:04:13;3.77;;;3.47;;
1837;SDS011;918;50.796;6.772;2023-02-28T06:06:42;4.40;;;4.00;;
1837;SDS011;918;50.796;6.772;2023-02-28T06:09:11;4.27;;;3.70;;
1837;SDS011;918;50.796;6.772;2023-02-28T06:11:36;4.30;;;3.80;;
1837;SDS011;918;50.796;6.772;2023-02-28T06:14:02;4.60;;;4.20;;
1837;SDS011;918;50.796;6.772;2023-02-28T06:16:28;5.27;;;4.40;;
1837;SDS011;918;50.796;6.772;2023-02-28T06:18:54;4.50;;;4.10;;
1837;SDS011;918;50.796;6.772;2023-02-28T06:21:22;4.80;;;3.87;;
1837;SDS011;918;50.796;6.772;2023-02-28T06:23:47;4.80;;;4.50;;
1837;SDS011;918;50.796;6.772;2023-02-28T06:26:12;4.70;;;4.37;;
1837;SDS011;918;50.796;6.772;2023-02-28T06:28:38;6.63;;;5.93;;
1837;SDS011;918;50.796;6.772;2023-02-28T06:31:10;7.20;;;6.50;;
1837;SDS011;918;50.796;6.772;2023-02-28T06:33:37;6.37;;;5.60;;
1837;SDS011;918;50.796;6.772;2023-02-28T06:36:03;6.20;;;5.70;;
1837;SDS011;918;50.796;6.772;2023-02-28T06:38:29;5.17;;;4.77;;
1837;SDS011;918;50.796;6.772;2023-02-28T06:40:55;5.17;;;4.50;;
1837;SDS011;918;50.796;6.772;2023-02-28T06:43:21;5.80;;;5.30;;
1837;SDS011;918;50.796;6.772;2023-02-28T06:45:47;5.03;;;4.63;;
1837;SDS011;918;50.796;6.772;2023-02-28T06:48:12;5.03;;;4.63;;
1837;SDS011;918;50.796;6.772;2023-02-28T06:50:37;4.60;;;4.20;;
1837;SDS011;918;50.796;6.772;2023-02-28T06:53:03;4.47;;;4.17;;
1837;SDS011;918;50.796;6.772;2023-02-28T06:55:28;4.43;;;4.13;;
1837;SDS011;918;50.796;6.772;2023-02-28T06:57:53;5.23;;;4.83;;
1837;SDS011;918;50.796;6.772;2023-02-28T07:00:19;5.00;;;4.57;;
1837;SDS011;918;50.796;6.772;2023-02-28T07:02:45;4.10;;;3.80;;
1837;SDS011;918;50.796;6.772;2023-02-28T07:05:12;4.50;;;4.20;;
1837;SDS011;918;50.796;6.772;2023-02-28T07:07:37;5.17;;;3.77;;
1837;SDS011;918;50.796;6.772;2023-02-28T07:10:05;4.40;;;4.00;;
1837;SDS011;918;50.796;6.772;2023-02-28T07:12:32;3.40;;;3.20;;
1837;SDS011;918;50.796;6.772;2023-02-28T07:14:57;4.03;;;3.60;;
1837;SDS011;918;50.796;6.772;2023-02-28T07:17:22;5.03;;;4.20;;
1837;SDS011;918;50.796;6.772;2023-02-28T07:19:47;3.60;;;3.30;;
1837;SDS011;918;50.796;6.772;2023-02-28T07:22:13;3.47;;;3.27;;
1837;SDS011;918;50.796;6.772;2023-02-28T07:24:38;3.37;;;3.17;;
1837;SDS011;918;50.796;6.772;2023-02-28T07:27:03;4.10;;;3.80;;
1837;SDS011;918;50.796;6.772;2023-02-28T07:29:29;3.50;;;3.20;;
1837;SDS011;918;50.796;6.772;2023-02-28T07:31:55;3.60;;;3.30;;
1837;SDS011;918;50.796;6.772;2023-02-28T07:34:21;3.90;;;3.60;;
1837;SDS011;918;50.796;6.772;2023-02-28T07:36:46;4.10;;;3.23;;
1837;SDS011;918;50.796;6.772;2023-02-28T07:42:38;3.53;;;3.23;;
1837;SDS011;918;50.796;6.772;2023-02-28T07:45:04;3.80;;;3.50;;
1837;SDS011;918;50.796;6.772;2023-02-28T07:47:30;3.13;;;2.93;;
1837;SDS011;918;50.796;6.772;2023-02-28T07:49:56;3.63;;;3.43;;
1837;SDS011;918;50.796;6.772;2023-02-28T07:52:21;3.80;;;3.50;;
1837;SDS011;918;50.796;6.772;2023-02-28T07:54:48;3.27;;;3.07;;
1837;SDS011;918;50.796;6.772;2023-02-28T07:57:14;3.57;;;3.30;;
1837;SDS011;918;50.796;6.772;2023-02-28T07:59:39;4.67;;;4.20;;
1837;SDS011;918;50.796;6.772;2023-02-28T08:02:04;4.27;;;3.80;;
1837;SDS011;918;50.796;6.772;2023-02-28T08:04:31;4.60;;;4.20;;
1837;SDS011;918;50.796;6.772;2023-02-28T08:06:57;4.57;;;4.17;;
1837;SDS011;918;50.796;6.772;2023-02-28T08:09:22;4.03;;;3.63;;
1837;SDS011;918;50.796;6.772;2023-02-28T08:11:47;4.10;;;3.80;;
1837;SDS011;918;50.796;6.772;2023-02-28T08:14:13;4.50;;;4.10;;
1837;SDS011;918;50.796;6.772;2023-02-28T08:16:38;4.70;;;3.87;;
1837;SDS011;918;50.796;6.772;2023-02-28T08:19:04;5.10;;;3.70;;
1837;SDS011;918;50.796;6.772;2023-02-28T08:21:29;4.23;;;3.23;;
1837;SDS011;918;50.796;6.772;2023-02-28T08:23:54;3.97;;;3.67;;
1837;SDS011;918;50.796;6.772;2023-02-28T08:26:21;3.80;;;3.50;;
1837;SDS011;918;50.796;6.772;2023-02-28T08:28:46;2.73;;;2.53;;
1837;SDS011;918;50.796;6.772;2023-02-28T08:31:12;2.80;;;2.60;;
1837;SDS011;918;50.796;6.772;2023-02-28T08:33:39;2.90;;;2.60;;
1837;SDS011;918;50.796;6.772;2023-02-28T08:36:05;2.73;;;2.53;;
1837;SDS011;918;50.796;6.772;2023-02-28T08:38:31;2.80;;;2.60;;
1837;SDS011;918;50.796;6.772;2023-02-28T08:40:57;2.83;;;2.63;;
1837;SDS011;918;50.796;6.772;2023-02-28T08:43:23;2.60;;;2.40;;
1837;SDS011;918;50.796;6.772;2023-02-28T08:45:51;2.60;;;2.40;;
1837;SDS011;918;50.796;6.772;2023-02-28T08:48:17;4.07;;;2.60;;
1837;SDS011;918;50.796;6.772;2023-02-28T08:50:42;2.70;;;2.50;;
1837;SDS011;918;50.796;6.772;2023-02-28T08:53:07;3.13;;;2.93;;
1837;SDS011;918;50.796;6.772;2023-02-28T08:55:32;2.30;;;2.17;;
1837;SDS011;918;50.796;6.772;2023-02-28T08:57:57;5.67;;;2.80;;
1837;SDS011;918;50.796;6.772;2023-02-28T09:00:23;2.53;;;2.33;;
1837;SDS011;918;50.796;6.772;2023-02-28T09:02:48;1.90;;;1.80;;
1837;SDS011;918;50.796;6.772;2023-02-28T09:05:13;2.57;;;2.37;;
1837;SDS011;918;50.796;6.772;2023-02-28T09:07:39;3.43;;;2.63;;
1837;SDS011;918;50.796;6.772;2023-02-28T09:10:04;3.33;;;2.50;;
1837;SDS011;918;50.796;6.772;2023-02-28T09:12:32;2.83;;;2.23;;
1837;SDS011;918;50.796;6.772;2023-02-28T09:14:58;2.47;;;2.27;;
1837;SDS011;918;50.796;6.772;2023-02-28T09:17:23;2.50;;;2.30;;
1837;SDS011;918;50.796;6.772;2023-02-28T09:19:48;2.30;;;2.10;;
1837;SDS011;918;50.796;6.772;2023-02-28T09:22:14;2.10;;;1.90;;
1837;SDS011;918;50.796;6.772;2023-02-28T09:24:39;4.30;;;2.40;;
1837;SDS011;918;50.796;6.772;2023-02-28T09:27:05;2.33;;;2.13;;
1837;SDS011;918;50.796;6.772;2023-02-28T09:29:30;2.10;;;2.00;;
1837;SDS011;918;50.796;6.772;2023-02-28T09:31:56;2.30;;;2.10;;
1837;SDS011;918;50.796;6.772;2023-02-28T09:34:23;2.80;;;2.60;;
1837;SDS011;918;50.796;6.772;2023-02-28T09:36:51;2.20;;;1.67;;
1837;SDS011;918;50.796;6.772;2023-02-28T09:39:19;2.23;;;2.03;;
1837;SDS011;918;50.796;6.772;2023-02-28T09:41:47;2.57;;;2.37;;
1837;SDS011;918;50.796;6.772;2023-02-28T09:44:22;2.13;;;1.93;;
1837;SDS011;918;50.796;6.772;2023-02-28T09:46:54;2.30;;;2.20;;
1837;SDS011;918;50.796;6.772;2023-02-28T09:49:25;2.43;;;2.13;;
1837;SDS011;918;50.796;6.772;2023-02-28T09:52:08;2.97;;;2.00;;
1837;SDS011;918;50.796;6.772;2023-02-28T09:54:36;2.10;;;2.00;;
1837;SDS011;918;50.796;6.772;2023-02-28T10:04:57;2.90;;;2.20;;
1837;SDS011;918;50.796;6.772;2023-02-28T10:15:37;2.70;;;2.50;;
1837;SDS011;918;50.796;6.772;2023-02-28T10:18:04;3.60;;;3.00;;
1837;SDS011;918;50.796;6.772;2023-02-28T10:20:31;4.10;;;3.27;;
1837;SDS011;918;50.796;6.772;2023-02-28T10:23:09;2.77;;;2.57;;
1837;SDS011;918;50.796;6.772;2023-02-28T10:25:39;2.30;;;2.10;;
1837;SDS011;918;50.796;6.772;2023-02-28T10:28:14;2.60;;;2.40;;
1837;SDS011;918;50.796;6.772;2023-02-28T10:30:44;2.20;;;2.10;;
1837;SDS011;918;50.796;6.772;2023-02-28T10:33:33;2.60;;;2.47;;
1837;SDS011;918;50.796;6.772;2023-02-28T10:35:59;2.10;;;2.00;;
1837;SDS011;918;50.796;6.772;2023-02-28T10:38:31;2.33;;;2.13;;
1837;SDS011;918;50.796;6.772;2023-02-28T10:41:03;3.27;;;2.70;;
1837;SDS011;918;50.796;6.772;2023-02-28T10:43:36;2.00;;;1.90;;
1837;SDS011;918;50.796;6.772;2023-02-28T10:50:59;2.50;;;2.30;;
1837;SDS011;918;50.796;6.772;2023-02-28T10:53:30;2.60;;;2.40;;
1837;SDS011;918;50.796;6.772;2023-02-28T10:56:14;3.83;;;2.60;;
1837;SDS011;918;50.796;6.772;2023-02-28T11:01:14;3.30;;;3.10;;
1837;SDS011;918;50.796;6.772;2023-02-28T11:03:40;2.60;;;2.40;;
1837;SDS011;918;50.796;6.772;2023-02-28T11:06:07;2.70;;;2.50;;
1837;SDS011;918;50.796;6.772;2023-02-28T11:08:33;2.67;;;2.47;;
1837;SDS011;918;50.796;6.772;2023-02-28T11:11:00;3.30;;;2.97;;
1837;SDS011;918;50.796;6.772;2023-02-28T11:13:33;2.70;;;2.50;;
1837;SDS011;918;50.796;6.772;2023-02-28T11:16:02;2.77;;;2.53;;
1837;SDS011;918;50.796;6.772;2023-02-28T11:18:30;3.03;;;2.83;;
1837;SDS011;918;50.796;6.772;2023-02-28T11:21:01;3.03;;;2.53;;
1837;SDS011;918;50.796;6.772;2023-02-28T11:23:28;2.53;;;2.43;;
1837;SDS011;918;50.796;6.772;2023-02-28T11:25:56;3.00;;;2.80;;
1837;SDS011;918;50.796;6.772;2023-02-28T11:28:28;2.90;;;2.70;;
1837;SDS011;918;50.796;6.772;2023-02-28T11:31:38;3.20;;;2.70;;
1837;SDS011;918;50.796;6.772;2023-02-28T11:33:51;2.60;;;2.40;;
1837;SDS011;918;50.796;6.772;2023-02-28T11:36:23;3.57;;;3.20;;
1837;SDS011;918;50.796;6.772;2023-02-28T11:38:53;3.47;;;3.17;;
1837;SDS011;918;50.796;6.772;2023-02-28T11:46:49;2.83;;;2.63;;
1837;SDS011;918;50.796;6.772;2023-02-28T11:49:21;3.30;;;3.00;;
1837;SDS011;918;50.796;6.772;2023-02-28T11:54:52;3.00;;;2.80;;
1837;SDS011;918;50.796;6.772;2023-02-28T12:20:05;3.57;;;3.37;;
1837;SDS011;918;50.796;6.772;2023-02-28T12:22:41;3.30;;;3.10;;
1837;SDS011;918;50.796;6.772;2023-02-28T12:25:21;3.67;;;3.37;;
1837;SDS011;918;50.796;6.772;2023-02-28T12:28:12;2.67;;;2.47;;
1837;SDS011;918;50.796;6.772;2023-02-28T12:30:41;3.10;;;2.80;;
1837;SDS011;918;50.796;6.772;2023-02-28T12:33:14;3.30;;;3.00;;
1837;SDS011;918;50.796;6.772;2023-02-28T12:38:24;3.00;;;2.80;;
1837;SDS011;918;50.796;6.772;2023-02-28T12:40:53;3.10;;;2.90;;
1837;SDS011;918;50.796;6.772;2023-02-28T12:43:22;3.30;;;3.03;;
1837;SDS011;918;50.796;6.772;2023-02-28T12:45:53;2.70;;;2.50;;
1837;SDS011;918;50.796;6.772;2023-02-28T12:48:24;3.47;;;2.80;;
1837;SDS011;918;50.796;6.772;2023-02-28T12:50:54;3.13;;;2.93;;
1837;SDS011;918;50.796;6.772;2023-02-28T12:53:31;3.30;;;3.10;;
1837;SDS011;918;50.796;6.772;2023-02-28T13:04:42;3.07;;;2.80;;
1837;SDS011;918;50.796;6.772;2023-02-28T13:09:59;2.60;;;2.40;;
1837;SDS011;918;50.796;6.772;2023-02-28T13:12:25;3.10;;;2.80;;
1837;SDS011;918;50.796;6.772;2023-02-28T13:14:51;3.77;;;3.47;;
1837;SDS011;918;50.796;6.772;2023-02-28T13:17:28;6.00;;;5.47;;
1837;SDS011;918;50.796;6.772;2023-02-28T13:22:20;3.43;;;3.13;;
1837;SDS011;918;50.796;6.772;2023-02-28T13:25:05;4.03;;;3.80;;
1837;SDS011;918;50.796;6.772;2023-02-28T13:27:57;4.70;;;4.30;;
1837;SDS011;918;50.796;6.772;2023-02-28T13:46:31;3.47;;;3.23;;
1837;SDS011;918;50.796;6.772;2023-02-28T13:49:17;4.07;;;3.77;;
1837;SDS011;918;50.796;6.772;2023-02-28T14:00:52;6.57;;;3.73;;
1837;SDS011;918;50.796;6.772;2023-02-28T14:06:13;3.83;;;3.50;;
1837;SDS011;918;50.796;6.772;2023-02-28T14:08:50;3.80;;;3.60;;
1837;SDS011;918;50.796;6.772;2023-02-28T14:11:30;3.70;;;3.40;;
1837;SDS011;918;50.796;6.772;2023-02-28T14:14:04;4.27;;;3.87;;
1837;SDS011;918;50.796;6.772;2023-02-28T14:16:40;3.90;;;3.60;;
1837;SDS011;918;50.796;6.772;2023-02-28T14:19:19;4.23;;;3.97;;
1837;SDS011;918;50.796;6.772;2023-02-28T14:27:48;4.03;;;3.73;;
1837;SDS011;918;50.796;6.772;2023-02-28T14:30:29;4.97;;;4.00;;
1837;SDS011;918;50.796;6.772;2023-02-28T14:36:03;5.00;;;4.10;;
1837;SDS011;918;50.796;6.772;2023-02-28T14:38:52;4.33;;;3.90;;
1837;SDS011;918;50.796;6.772;2023-02-28T14:41:22;4.40;;;4.00;;
1837;SDS011;918;50.796;6.772;2023-02-28T14:43:50;3.63;;;3.40;;
1837;SDS011;918;50.796;6.772;2023-02-28T14:46:18;4.80;;;4.40;;
1837;SDS011;918;50.796;6.772;2023-02-28T14:48:45;4.70;;;4.40;;
1837;SDS011;918;50.796;6.772;2023-02-28T14:51:12;4.60;;;4.30;;
1837;SDS011;918;50.796;6.772;2023-02-28T14:53:43;4.07;;;3.77;;
1837;SDS011;918;50.796;6.772;2023-02-28T14:56:17;4.90;;;4.60;;
1837;SDS011;918;50.796;6.772;2023-02-28T14:58:50;4.10;;;3.80;;
1837;SDS011;918;50.796;6.772;2023-02-28T15:01:18;4.80;;;4.40;;
1837;SDS011;918;50.796;6.772;2023-02-28T15:03:45;4.77;;;4.33;;
1837;SDS011;918;50.796;6.772;2023-02-28T15:06:14;4.20;;;3.87;;
1837;SDS011;918;50.796;6.772;2023-02-28T15:08:42;3.67;;;3.37;;
1837;SDS011;918;50.796;6.772;2023-02-28T15:11:11;4.43;;;4.03;;
1837;SDS011;918;50.796;6.772;2023-02-28T15:13:40;4.63;;;4.23;;
1837;SDS011;918;50.796;6.772;2023-02-28T15:16:11;5.07;;;4.67;;
1837;SDS011;918;50.796;6.772;2023-02-28T15:18:50;6.70;;;5.00;;
1837;SDS011;918;50.796;6.772;2023-02-28T15:21:19;5.90;;;5.30;;
1837;SDS011;918;50.796;6.772;2023-02-28T15:23:48;5.30;;;4.50;;
1837;SDS011;918;50.796;6.772;2023-02-28T15:26:16;3.90;;;3.60;;
1837;SDS011;918;50.796;6.772;2023-02-28T15:28:44;4.70;;;4.13;;
1837;SDS011;918;50.796;6.772;2023-02-28T15:31:18;5.70;;;4.77;;
1837;SDS011;918;50.796;6.772;2023-02-28T15:33:55;4.53;;;3.90;;
1837;SDS011;918;50.796;6.772;2023-02-28T15:36:24;4.43;;;4.00;;
1837;SDS011;918;50.796;6.772;2023-02-28T15:38:54;5.97;;;5.37;;
1837;SDS011;918;50.796;6.772;2023-02-28T15:41:29;4.33;;;4.03;;
1837;SDS011;918;50.796;6.772;2023-02-28T15:44:15;5.20;;;4.80;;
1837;SDS011;918;50.796;6.772;2023-02-28T15:47:05;4.30;;;4.00;;
1837;SDS011;918;50.796;6.772;2023-02-28T15:49:53;4.03;;;3.73;;
1837;SDS011;918;50.796;6.772;2023-02-28T15:52:33;4.60;;;4.20;;
1837;SDS011;918;50.796;6.772;2023-02-28T15:57:37;4.10;;;3.80;;
1837;SDS011;918;50.796;6.772;2023-02-28T16:00:04;4.37;;;4.07;;
1837;SDS011;918;50.796;6.772;2023-02-28T16:02:34;5.00;;;4.60;;
1837;SDS011;918;50.796;6.772;2023-02-28T16:07:31;4.90;;;4.50;;
1837;SDS011;918;50.796;6.772;2023-02-28T16:09:57;4.37;;;3.97;;
1837;SDS011;918;50.796;6.772;2023-02-28T16:12:25;4.47;;;4.07;;
1837;SDS011;918;50.796;6.772;2023-02-28T16:14:52;5.87;;;4.13;;
1837;SDS011;918;50.796;6.772;2023-02-28T16:17:24;4.53;;;4.13;;
1837;SDS011;918;50.796;6.772;2023-02-28T16:19:50;4.60;;;4.20;;
1837;SDS011;918;50.796;6.772;2023-02-28T16:22:16;4.40;;;4.10;;
1837;SDS011;918;50.796;6.772;2023-02-28T16:24:41;5.20;;;4.70;;
1837;SDS011;918;50.796;6.772;2023-02-28T16:27:07;4.53;;;4.23;;
1837;SDS011;918;50.796;6.772;2023-02-28T16:29:40;4.97;;;4.57;;
1837;SDS011;918;50.796;6.772;2023-02-28T16:32:05;5.90;;;5.40;;
1837;SDS011;918;50.796;6.772;2023-02-28T16:34:30;5.03;;;4.67;;
1837;SDS011;918;50.796;6.772;2023-02-28T16:36:56;5.17;;;4.77;;
1837;SDS011;918;50.796;6.772;2023-02-28T16:39:21;5.90;;;4.40;;
1837;SDS011;918;50.796;6.772;2023-02-28T16:41:47;4.63;;;4.23;;
1837;SDS011;918;50.796;6.772;2023-02-28T16:44:46;3.80;;;3.53;;
1837;SDS011;918;50.796;6.772;2023-02-28T16:47:05;5.67;;;5.20;;
1837;SDS011;918;50.796;6.772;2023-02-28T16:49:30;5.60;;;5.10;;
1837;SDS011;918;50.796;6.772;2023-02-28T16:51:56;5.53;;;5.10;;
1837;SDS011;918;50.796;6.772;2023-02-28T16:54:21;4.37;;;4.07;;
1837;SDS011;918;50.796;6.772;2023-02-28T16:56:47;4.80;;;4.50;;
1837;SDS011;918;50.796;6.772;2023-02-28T16:59:21;4.47;;;4.17;;
1837;SDS011;918;50.796;6.772;2023-02-28T17:01:48;5.33;;;4.93;;
1837;SDS011;918;50.796;6.772;2023-02-28T17:04:14;5.10;;;4.70;;
1837;SDS011;918;50.796;6.772;2023-02-28T17:06:40;5.37;;;4.80;;
1837;SDS011;918;50.796;6.772;2023-02-28T17:09:08;4.43;;;4.13;;
1837;SDS011;918;50.796;6.772;2023-02-28T17:11:40;4.53;;;4.13;;
1837;SDS011;918;50.796;6.772;2023-02-28T17:14:05;4.27;;;3.93;;
1837;SDS011;918;50.796;6.772;2023-02-28T17:16:31;4.27;;;3.97;;
1837;SDS011;918;50.796;6.772;2023-02-28T17:18:58;6.03;;;4.93;;
1837;SDS011;918;50.796;6.772;2023-02-28T17:21:25;5.43;;;5.03;;
1837;SDS011;918;50.796;6.772;2023-02-28T17:23:50;4.00;;;3.70;;
1837;SDS011;918;50.796;6.772;2023-02-28T17:26:16;5.07;;;4.67;;
1837;SDS011;918;50.796;6.772;2023-02-28T17:28:45;4.93;;;4.53;;
1837;SDS011;918;50.796;6.772;2023-02-28T17:31:13;6.00;;;5.13;;
1837;SDS011;918;50.796;6.772;2023-02-28T17:33:38;4.83;;;4.10;;
1837;SDS011;918;50.796;6.772;2023-02-28T17:36:04;4.90;;;4.50;;
1837;SDS011;918;50.796;6.772;2023-02-28T17:38:29;4.57;;;4.17;;
1837;SDS011;918;50.796;6.772;2023-02-28T17:40:55;4.03;;;3.73;;
1837;SDS011;918;50.796;6.772;2023-02-28T17:43:22;5.73;;;5.20;;
1837;SDS011;918;50.796;6.772;2023-02-28T17:45:49;5.30;;;4.80;;
1837;SDS011;918;50.796;6.772;2023-02-28T17:48:14;5.13;;;4.63;;
1837;SDS011;918;50.796;6.772;2023-02-28T17:50:39;5.03;;;4.73;;
1837;SDS011;918;50.796;6.772;2023-02-28T17:53:05;4.80;;;4.40;;
1837;SDS011;918;50.796;6.772;2023-02-28T17:55:30;5.87;;;5.37;;